Epic Balta — 9VED8 — position and weather

sailwx.info

Track history (hours):
 
Tides and Currents Weather Stations Pressure Air Temp Water Temp Dewpoint Dewpoint Depression Visibility Wind Speed Wind Dir Waves Ship Positions

Epic Balta

Last reported at 2016-May-21 21:31 UTC. Time now 2016-May-26 10:42 UTC.
Position N 09°49' W 079°43'.

Length 100 m; draft 4.4 m.

Type: Ship. MMSI: 565525000.

Date/timePositionNaut miles runAvg speedWind from/ knotsBaromVisibWave heightAir tempDewpointWater temp
2016-May-21 21:31N 09°49' W 079°43'1212.1
2016-May-21 20:33N 09°38' W 079°47'1211.9
2016-May-21 19:33N 09°26' W 079°50'2 2.5
2016-May-21 18:33N 09°24' W 079°49'0 0.0
2016-May-21 17:26N 09°24' W 079°49'0 0.0
2016-May-21 16:30N 09°24' W 079°49'0 0.0
2016-May-21 15:30N 09°24' W 079°49'0 0.0
2016-May-21 14:18N 09°24' W 079°49'0 0.0
2016-May-21 13:27N 09°24' W 079°49'0 0.0
2016-May-21 12:21N 09°24' W 079°49'0 0.0
2016-May-21 11:27N 09°24' W 079°49'0 0.0
2016-May-21 10:27N 09°24' W 079°49'0 0.0
2016-May-21 09:33N 09°24' W 079°49'0 0.0
2016-May-21 08:33N 09°24' W 079°49'0 0.0
2016-May-21 07:15N 09°24' W 079°49'0 0.0
2016-May-21 06:30N 09°24' W 079°49'0 0.0
2016-May-21 05:30N 09°24' W 079°49'0 0.0
2016-May-21 04:33N 09°24' W 079°49'0 0.0
2016-May-21 03:33N 09°24' W 079°49'0 0.0
2016-May-21 02:33N 09°24' W 079°49'0 0.0
2016-May-21 01:33N 09°24' W 079°49'0 0.0
2016-May-21 00:30N 09°24' W 079°49'0 0.0
2016-May-20 23:27N 09°24' W 079°49'0 0.0
2016-May-20 22:33N 09°24' W 079°49'0 0.0
2016-May-20 21:27N 09°24' W 079°49'0 0.0
2016-May-20 20:33N 09°24' W 079°49'0 0.0
2016-May-20 19:33N 09°24' W 079°49'0 0.0
2016-May-20 18:33N 09°24' W 079°49'0 0.0
2016-May-20 17:33N 09°24' W 079°49'0 0.0
2016-May-20 16:33N 09°24' W 079°49'0 0.0
2016-May-20 15:30N 09°24' W 079°49'0 0.0
2016-May-20 14:30N 09°24' W 079°49'0 0.0
2016-May-20 13:21N 09°24' W 079°49'0 0.0
2016-May-20 12:33N 09°24' W 079°49'5 4.5
2016-May-20 11:34N 09°28' W 079°50'9 9.3
2016-May-20 10:33N 09°37' W 079°51'1111.3
2016-May-20 09:33N 09°48' W 079°51'  
2016-May-15 05:21N 29°41' W 089°58'1012.2
2016-May-15 04:33N 29°51' W 089°59'6 5.6
2016-May-15 03:33N 29°56' W 090°00'8 8.0
2016-May-15 02:33N 29°57' W 090°09'  
2016-May-12 22:03N 29°58' W 090°18'4 6.7
2016-May-12 21:31N 29°57' W 090°14'5 4.9
2016-May-12 20:33N 29°56' W 090°08'5 4.9
2016-May-12 19:34N 29°58' W 090°03'8 8.1
2016-May-12 18:33N 29°54' W 089°55'6 5.9
2016-May-12 17:33N 29°50' W 089°60'0 0.0
2016-May-12 14:33N 29°50' W 089°60'0 0.0
2016-May-12 12:12N 29°50' W 089°60'0 0.0
2016-May-12 10:06N 29°50' W 089°60'0 0.0
2016-May-12 07:24N 29°50' W 089°60'0 0.0
2016-May-12 04:18N 29°50' W 089°60'0 0.0
2016-May-12 03:33N 29°50' W 089°60'0 0.0
2016-May-12 02:24N 29°50' W 089°60'0 0.0
2016-May-12 01:30N 29°50' W 089°60'0 0.0
2016-May-12 00:30N 29°50' W 089°60'0 0.0
2016-May-11 23:24N 29°50' W 089°60'0 0.0
2016-May-11 22:24N 29°50' W 089°60'  
Track history (hours):
 
Tides and Currents Weather Stations Pressure Air Temp Water Temp Dewpoint Dewpoint Depression Visibility Wind Speed Wind Dir Waves Ship Positions

Epic Balta

Last reported at 2016-May-21 21:31 UTC. Time now 2016-May-26 10:42 UTC.
Position N 09°49' W 079°43'.

Length 100 m; draft 4.4 m.

Type: Ship. MMSI: 565525000.

Date/timePositionNaut miles runAvg speedWind from/ knotsBaromVisibWave heightAir tempDewpointWater temp
2016-May-21 21:31N 09°49' W 079°43'1212.1
2016-May-21 20:33N 09°38' W 079°47'1211.9
2016-May-21 19:33N 09°26' W 079°50'2 2.5
2016-May-21 18:33N 09°24' W 079°49'0 0.0
2016-May-21 17:26N 09°24' W 079°49'0 0.0
2016-May-21 16:30N 09°24' W 079°49'0 0.0
2016-May-21 15:30N 09°24' W 079°49'0 0.0
2016-May-21 14:18N 09°24' W 079°49'0 0.0
2016-May-21 13:27N 09°24' W 079°49'0 0.0
2016-May-21 12:21N 09°24' W 079°49'0 0.0
2016-May-21 11:27N 09°24' W 079°49'0 0.0
2016-May-21 10:27N 09°24' W 079°49'0 0.0
2016-May-21 09:33N 09°24' W 079°49'0 0.0
2016-May-21 08:33N 09°24' W 079°49'0 0.0
2016-May-21 07:15N 09°24' W 079°49'0 0.0
2016-May-21 06:30N 09°24' W 079°49'0 0.0
2016-May-21 05:30N 09°24' W 079°49'0 0.0
2016-May-21 04:33N 09°24' W 079°49'0 0.0
2016-May-21 03:33N 09°24' W 079°49'0 0.0
2016-May-21 02:33N 09°24' W 079°49'0 0.0
2016-May-21 01:33N 09°24' W 079°49'0 0.0
2016-May-21 00:30N 09°24' W 079°49'0 0.0
2016-May-20 23:27N 09°24' W 079°49'0 0.0
2016-May-20 22:33N 09°24' W 079°49'0 0.0
2016-May-20 21:27N 09°24' W 079°49'0 0.0
2016-May-20 20:33N 09°24' W 079°49'0 0.0
2016-May-20 19:33N 09°24' W 079°49'0 0.0
2016-May-20 18:33N 09°24' W 079°49'0 0.0
2016-May-20 17:33N 09°24' W 079°49'0 0.0
2016-May-20 16:33N 09°24' W 079°49'0 0.0
2016-May-20 15:30N 09°24' W 079°49'0 0.0
2016-May-20 14:30N 09°24' W 079°49'0 0.0
2016-May-20 13:21N 09°24' W 079°49'0 0.0
2016-May-20 12:33N 09°24' W 079°49'5 4.5
2016-May-20 11:34N 09°28' W 079°50'9 9.3
2016-May-20 10:33N 09°37' W 079°51'1111.3
2016-May-20 09:33N 09°48' W 079°51'  
2016-May-15 05:21N 29°41' W 089°58'1012.2
2016-May-15 04:33N 29°51' W 089°59'6 5.6
2016-May-15 03:33N 29°56' W 090°00'8 8.0
2016-May-15 02:33N 29°57' W 090°09'  
2016-May-12 22:03N 29°58' W 090°18'4 6.7
2016-May-12 21:31N 29°57' W 090°14'5 4.9
2016-May-12 20:33N 29°56' W 090°08'5 4.9
2016-May-12 19:34N 29°58' W 090°03'8 8.1
2016-May-12 18:33N 29°54' W 089°55'6 5.9
2016-May-12 17:33N 29°50' W 089°60'0 0.0
2016-May-12 14:33N 29°50' W 089°60'0 0.0
2016-May-12 12:12N 29°50' W 089°60'0 0.0
2016-May-12 10:06N 29°50' W 089°60'0 0.0
2016-May-12 07:24N 29°50' W 089°60'0 0.0
2016-May-12 04:18N 29°50' W 089°60'0 0.0
2016-May-12 03:33N 29°50' W 089°60'0 0.0
2016-May-12 02:24N 29°50' W 089°60'0 0.0
2016-May-12 01:30N 29°50' W 089°60'0 0.0
2016-May-12 00:30N 29°50' W 089°60'0 0.0
2016-May-11 23:24N 29°50' W 089°60'0 0.0
2016-May-11 22:24N 29°50' W 089°60'  

Dump ship's entire track history